Upper Key Largo, Florida
Current Conditions -  °F | °C
As of 1:27 PM on Wednesday 28 Jan 2015 (Local Time) from KHST Reporting Station
Clear Clear  
Wind Chill: 66°   Ceiling: Unl
Heat Index: 66°   Visibility: 10mi
Dew Point: 36°   Wind: 15mph
Humidity: 32%   Direction: 360°N
Pressure: 30.13"   Gusts: 23mph
Location:  25.2553°N, 80.3918°W
Report Text: KHST 281827Z AUTO 36013G20KT 10SM CLR 19/02 A3013 RMK AO2 WSHFT 24
Loading
Personal Weather Stations






























Interactive Weather Map New forecast layout! Learn more

10-Day Weather Forecast

Advertisements
Track Severe Weather on mobile